sensor_id;sensor_type;location;lat;lon;timestamp;P1;durP1;ratioP1;P2;durP2;ratioP2
37297;SDS011;30517;51.932;4.278;2023-06-14T00:01:52;3.80;;;2.17;;
37297;SDS011;30517;51.932;4.278;2023-06-14T00:04:33;4.30;;;1.80;;
37297;SDS011;30517;51.932;4.278;2023-06-14T00:07:14;4.80;;;2.33;;
37297;SDS011;30517;51.932;4.278;2023-06-14T00:09:56;3.53;;;1.70;;
37297;SDS011;30517;51.932;4.278;2023-06-14T00:12:38;4.10;;;2.22;;
37297;SDS011;30517;51.932;4.278;2023-06-14T00:15:19;3.80;;;1.75;;
37297;SDS011;30517;51.932;4.278;2023-06-14T00:18:01;4.50;;;2.03;;
37297;SDS011;30517;51.932;4.278;2023-06-14T00:20:42;4.30;;;2.22;;
37297;SDS011;30517;51.932;4.278;2023-06-14T00:23:23;4.43;;;1.85;;
37297;SDS011;30517;51.932;4.278;2023-06-14T00:26:04;4.53;;;2.20;;
37297;SDS011;30517;51.932;4.278;2023-06-14T00:28:45;3.17;;;1.70;;
37297;SDS011;30517;51.932;4.278;2023-06-14T00:31:26;4.15;;;1.67;;
37297;SDS011;30517;51.932;4.278;2023-06-14T00:34:07;3.97;;;1.90;;
37297;SDS011;30517;51.932;4.278;2023-06-14T00:36:49;4.30;;;2.10;;
37297;SDS011;30517;51.932;4.278;2023-06-14T00:39:30;4.57;;;2.20;;
37297;SDS011;30517;51.932;4.278;2023-06-14T00:42:11;4.30;;;1.75;;
37297;SDS011;30517;51.932;4.278;2023-06-14T00:44:52;4.43;;;2.03;;
37297;SDS011;30517;51.932;4.278;2023-06-14T00:47:33;3.85;;;1.92;;
37297;SDS011;30517;51.932;4.278;2023-06-14T00:50:15;4.70;;;2.00;;
37297;SDS011;30517;51.932;4.278;2023-06-14T00:52:56;3.42;;;1.70;;
37297;SDS011;30517;51.932;4.278;2023-06-14T00:55:37;4.55;;;2.20;;
37297;SDS011;30517;51.932;4.278;2023-06-14T00:58:18;4.30;;;1.92;;
37297;SDS011;30517;51.932;4.278;2023-06-14T01:01:00;4.32;;;2.38;;
37297;SDS011;30517;51.932;4.278;2023-06-14T01:03:42;4.38;;;2.20;;
37297;SDS011;30517;51.932;4.278;2023-06-14T01:06:27;4.28;;;1.95;;
37297;SDS011;30517;51.932;4.278;2023-06-14T01:09:27;3.97;;;1.98;;
37297;SDS011;30517;51.932;4.278;2023-06-14T01:12:24;3.70;;;1.98;;
37297;SDS011;30517;51.932;4.278;2023-06-14T01:15:12;5.28;;;2.28;;
37297;SDS011;30517;51.932;4.278;2023-06-14T01:17:54;3.97;;;1.90;;
37297;SDS011;30517;51.932;4.278;2023-06-14T01:20:37;4.35;;;2.05;;
37297;SDS011;30517;51.932;4.278;2023-06-14T01:23:19;4.07;;;1.90;;
37297;SDS011;30517;51.932;4.278;2023-06-14T01:26:01;4.00;;;2.13;;
37297;SDS011;30517;51.932;4.278;2023-06-14T01:28:45;3.67;;;1.92;;
37297;SDS011;30517;51.932;4.278;2023-06-14T01:31:28;4.50;;;1.73;;
37297;SDS011;30517;51.932;4.278;2023-06-14T01:34:20;5.07;;;1.98;;
37297;SDS011;30517;51.932;4.278;2023-06-14T01:37:01;3.75;;;1.98;;
37297;SDS011;30517;51.932;4.278;2023-06-14T01:39:43;4.93;;;2.00;;
37297;SDS011;30517;51.932;4.278;2023-06-14T01:42:25;4.40;;;2.20;;
37297;SDS011;30517;51.932;4.278;2023-06-14T01:45:07;4.35;;;2.17;;
37297;SDS011;30517;51.932;4.278;2023-06-14T01:47:50;4.28;;;2.13;;
37297;SDS011;30517;51.932;4.278;2023-06-14T01:50:31;4.78;;;1.77;;
37297;SDS011;30517;51.932;4.278;2023-06-14T01:53:12;4.00;;;1.80;;
37297;SDS011;30517;51.932;4.278;2023-06-14T01:55:53;4.90;;;2.10;;
37297;SDS011;30517;51.932;4.278;2023-06-14T01:58:34;4.15;;;1.98;;
37297;SDS011;30517;51.932;4.278;2023-06-14T02:01:15;4.40;;;2.10;;
37297;SDS011;30517;51.932;4.278;2023-06-14T02:03:56;4.07;;;1.80;;
37297;SDS011;30517;51.932;4.278;2023-06-14T02:06:37;3.88;;;1.92;;
37297;SDS011;30517;51.932;4.278;2023-06-14T02:09:18;4.25;;;2.38;;
37297;SDS011;30517;51.932;4.278;2023-06-14T02:11:59;3.65;;;1.98;;
37297;SDS011;30517;51.932;4.278;2023-06-14T02:14:40;6.63;;;2.20;;
37297;SDS011;30517;51.932;4.278;2023-06-14T02:17:21;4.10;;;2.20;;
37297;SDS011;30517;51.932;4.278;2023-06-14T02:20:05;5.20;;;2.55;;
37297;SDS011;30517;51.932;4.278;2023-06-14T02:22:46;4.50;;;2.50;;
37297;SDS011;30517;51.932;4.278;2023-06-14T02:25:27;4.82;;;2.10;;
37297;SDS011;30517;51.932;4.278;2023-06-14T02:28:08;3.75;;;2.00;;
37297;SDS011;30517;51.932;4.278;2023-06-14T02:30:48;4.60;;;2.20;;
37297;SDS011;30517;51.932;4.278;2023-06-14T02:33:29;3.60;;;1.83;;
37297;SDS011;30517;51.932;4.278;2023-06-14T02:36:10;3.95;;;2.08;;
37297;SDS011;30517;51.932;4.278;2023-06-14T02:38:51;3.80;;;2.00;;
37297;SDS011;30517;51.932;4.278;2023-06-14T02:41:34;4.22;;;2.30;;
37297;SDS011;30517;51.932;4.278;2023-06-14T02:44:15;4.40;;;2.10;;
37297;SDS011;30517;51.932;4.278;2023-06-14T02:46:57;4.80;;;2.20;;
37297;SDS011;30517;51.932;4.278;2023-06-14T02:49:40;4.70;;;2.33;;
37297;SDS011;30517;51.932;4.278;2023-06-14T02:52:21;4.57;;;2.10;;
37297;SDS011;30517;51.932;4.278;2023-06-14T02:55:02;3.80;;;1.90;;
37297;SDS011;30517;51.932;4.278;2023-06-14T02:57:43;3.15;;;1.80;;
37297;SDS011;30517;51.932;4.278;2023-06-14T03:00:24;4.95;;;2.20;;
37297;SDS011;30517;51.932;4.278;2023-06-14T03:03:05;4.72;;;2.33;;
37297;SDS011;30517;51.932;4.278;2023-06-14T03:05:53;3.95;;;1.80;;
37297;SDS011;30517;51.932;4.278;2023-06-14T03:08:34;4.85;;;2.25;;
37297;SDS011;30517;51.932;4.278;2023-06-14T03:11:18;3.75;;;1.98;;
37297;SDS011;30517;51.932;4.278;2023-06-14T03:14:00;4.55;;;2.13;;
37297;SDS011;30517;51.932;4.278;2023-06-14T03:16:44;4.18;;;2.17;;
37297;SDS011;30517;51.932;4.278;2023-06-14T03:19:25;4.53;;;2.13;;
37297;SDS011;30517;51.932;4.278;2023-06-14T03:22:06;3.75;;;1.85;;
37297;SDS011;30517;51.932;4.278;2023-06-14T03:24:47;4.10;;;2.13;;
37297;SDS011;30517;51.932;4.278;2023-06-14T03:27:28;4.35;;;2.10;;
37297;SDS011;30517;51.932;4.278;2023-06-14T03:30:09;4.03;;;2.00;;
37297;SDS011;30517;51.932;4.278;2023-06-14T03:32:50;4.80;;;2.45;;
37297;SDS011;30517;51.932;4.278;2023-06-14T03:35:32;4.25;;;2.10;;
37297;SDS011;30517;51.932;4.278;2023-06-14T03:38:13;3.90;;;2.10;;
37297;SDS011;30517;51.932;4.278;2023-06-14T03:40:55;4.47;;;2.30;;
37297;SDS011;30517;51.932;4.278;2023-06-14T03:43:35;3.80;;;2.08;;
37297;SDS011;30517;51.932;4.278;2023-06-14T03:46:16;3.90;;;1.98;;
37297;SDS011;30517;51.932;4.278;2023-06-14T03:48:57;5.10;;;2.55;;
37297;SDS011;30517;51.932;4.278;2023-06-14T03:51:38;5.25;;;2.33;;
37297;SDS011;30517;51.932;4.278;2023-06-14T03:54:19;4.65;;;2.08;;
37297;SDS011;30517;51.932;4.278;2023-06-14T03:57:01;4.35;;;2.22;;
37297;SDS011;30517;51.932;4.278;2023-06-14T03:59:42;5.20;;;2.10;;
37297;SDS011;30517;51.932;4.278;2023-06-14T04:02:23;4.63;;;2.30;;
37297;SDS011;30517;51.932;4.278;2023-06-14T04:05:05;5.15;;;2.40;;
37297;SDS011;30517;51.932;4.278;2023-06-14T04:07:48;4.60;;;2.60;;
37297;SDS011;30517;51.932;4.278;2023-06-14T04:10:30;4.15;;;2.13;;
37297;SDS011;30517;51.932;4.278;2023-06-14T04:13:12;4.93;;;2.63;;
37297;SDS011;30517;51.932;4.278;2023-06-14T04:15:53;4.75;;;2.22;;
37297;SDS011;30517;51.932;4.278;2023-06-14T04:18:34;4.30;;;2.08;;
37297;SDS011;30517;51.932;4.278;2023-06-14T04:21:14;3.80;;;1.92;;
37297;SDS011;30517;51.932;4.278;2023-06-14T04:23:55;5.63;;;2.35;;
37297;SDS011;30517;51.932;4.278;2023-06-14T04:26:36;4.18;;;2.10;;
37297;SDS011;30517;51.932;4.278;2023-06-14T04:29:27;4.30;;;2.22;;
37297;SDS011;30517;51.932;4.278;2023-06-14T04:32:09;4.57;;;2.00;;
37297;SDS011;30517;51.932;4.278;2023-06-14T04:34:50;4.82;;;2.35;;
37297;SDS011;30517;51.932;4.278;2023-06-14T04:37:33;5.13;;;2.22;;
37297;SDS011;30517;51.932;4.278;2023-06-14T04:40:14;4.38;;;1.80;;
37297;SDS011;30517;51.932;4.278;2023-06-14T04:42:55;4.38;;;2.15;;
37297;SDS011;30517;51.932;4.278;2023-06-14T04:45:37;4.00;;;2.17;;
37297;SDS011;30517;51.932;4.278;2023-06-14T04:48:20;4.50;;;2.22;;
37297;SDS011;30517;51.932;4.278;2023-06-14T04:51:01;3.88;;;2.10;;
37297;SDS011;30517;51.932;4.278;2023-06-14T04:53:44;5.47;;;2.08;;
37297;SDS011;30517;51.932;4.278;2023-06-14T04:56:27;4.85;;;2.00;;
37297;SDS011;30517;51.932;4.278;2023-06-14T04:59:09;4.68;;;2.22;;
37297;SDS011;30517;51.932;4.278;2023-06-14T05:01:51;4.28;;;2.17;;
37297;SDS011;30517;51.932;4.278;2023-06-14T05:04:33;3.97;;;2.15;;
37297;SDS011;30517;51.932;4.278;2023-06-14T05:07:14;6.18;;;2.15;;
37297;SDS011;30517;51.932;4.278;2023-06-14T05:09:55;7.90;;;2.53;;
37297;SDS011;30517;51.932;4.278;2023-06-14T05:12:36;5.90;;;2.63;;
37297;SDS011;30517;51.932;4.278;2023-06-14T05:15:17;8.25;;;2.80;;
37297;SDS011;30517;51.932;4.278;2023-06-14T05:18:05;6.57;;;2.92;;
37297;SDS011;30517;51.932;4.278;2023-06-14T05:20:48;7.18;;;2.58;;
37297;SDS011;30517;51.932;4.278;2023-06-14T05:23:29;7.63;;;2.53;;
37297;SDS011;30517;51.932;4.278;2023-06-14T05:26:13;5.35;;;2.53;;
37297;SDS011;30517;51.932;4.278;2023-06-14T05:31:38;7.45;;;2.53;;
37297;SDS011;30517;51.932;4.278;2023-06-14T05:34:19;4.93;;;2.58;;
37297;SDS011;30517;51.932;4.278;2023-06-14T05:37:00;4.60;;;2.40;;
37297;SDS011;30517;51.932;4.278;2023-06-14T05:39:41;5.95;;;2.80;;
37297;SDS011;30517;51.932;4.278;2023-06-14T05:42:22;3.95;;;2.10;;
37297;SDS011;30517;51.932;4.278;2023-06-14T05:45:03;5.45;;;2.45;;
37297;SDS011;30517;51.932;4.278;2023-06-14T05:47:44;4.57;;;2.22;;
37297;SDS011;30517;51.932;4.278;2023-06-14T05:50:25;4.45;;;2.00;;
37297;SDS011;30517;51.932;4.278;2023-06-14T05:53:06;4.18;;;2.00;;
37297;SDS011;30517;51.932;4.278;2023-06-14T05:55:47;4.70;;;2.25;;
37297;SDS011;30517;51.932;4.278;2023-06-14T05:58:28;4.32;;;1.90;;
37297;SDS011;30517;51.932;4.278;2023-06-14T06:01:09;4.65;;;2.22;;
37297;SDS011;30517;51.932;4.278;2023-06-14T06:03:49;5.05;;;2.50;;
37297;SDS011;30517;51.932;4.278;2023-06-14T06:06:30;4.30;;;2.05;;
37297;SDS011;30517;51.932;4.278;2023-06-14T06:09:12;4.57;;;1.90;;
37297;SDS011;30517;51.932;4.278;2023-06-14T06:11:54;5.40;;;2.38;;
37297;SDS011;30517;51.932;4.278;2023-06-14T06:14:35;4.57;;;2.10;;
37297;SDS011;30517;51.932;4.278;2023-06-14T06:17:16;4.85;;;2.00;;
37297;SDS011;30517;51.932;4.278;2023-06-14T06:20:00;5.80;;;2.58;;
37297;SDS011;30517;51.932;4.278;2023-06-14T06:22:40;4.82;;;2.35;;
37297;SDS011;30517;51.932;4.278;2023-06-14T06:25:21;4.43;;;2.15;;
37297;SDS011;30517;51.932;4.278;2023-06-14T06:28:02;5.80;;;2.08;;
37297;SDS011;30517;51.932;4.278;2023-06-14T06:30:43;8.65;;;2.45;;
37297;SDS011;30517;51.932;4.278;2023-06-14T06:33:24;6.13;;;2.13;;
37297;SDS011;30517;51.932;4.278;2023-06-14T06:36:05;4.90;;;2.55;;
37297;SDS011;30517;51.932;4.278;2023-06-14T06:38:46;4.30;;;2.00;;
37297;SDS011;30517;51.932;4.278;2023-06-14T06:41:28;4.60;;;2.20;;
37297;SDS011;30517;51.932;4.278;2023-06-14T06:44:08;4.95;;;2.22;;
37297;SDS011;30517;51.932;4.278;2023-06-14T06:46:52;4.53;;;2.22;;
37297;SDS011;30517;51.932;4.278;2023-06-14T06:49:33;3.75;;;1.85;;
37297;SDS011;30517;51.932;4.278;2023-06-14T06:52:14;5.30;;;2.10;;
37297;SDS011;30517;51.932;4.278;2023-06-14T06:54:55;8.52;;;2.40;;
37297;SDS011;30517;51.932;4.278;2023-06-14T06:57:37;4.05;;;1.92;;
37297;SDS011;30517;51.932;4.278;2023-06-14T07:00:17;3.85;;;1.73;;
37297;SDS011;30517;51.932;4.278;2023-06-14T07:02:59;5.30;;;2.30;;
37297;SDS011;30517;51.932;4.278;2023-06-14T07:05:40;5.72;;;2.08;;
37297;SDS011;30517;51.932;4.278;2023-06-14T07:08:21;5.95;;;2.47;;
37297;SDS011;30517;51.932;4.278;2023-06-14T07:11:04;3.83;;;1.77;;
37297;SDS011;30517;51.932;4.278;2023-06-14T07:13:46;5.50;;;2.03;;
37297;SDS011;30517;51.932;4.278;2023-06-14T07:16:26;6.93;;;2.78;;
37297;SDS011;30517;51.932;4.278;2023-06-14T07:19:07;4.15;;;2.15;;
37297;SDS011;30517;51.932;4.278;2023-06-14T07:21:49;5.72;;;2.20;;
37297;SDS011;30517;51.932;4.278;2023-06-14T07:24:30;5.22;;;2.28;;
37297;SDS011;30517;51.932;4.278;2023-06-14T07:27:11;6.00;;;2.33;;
37297;SDS011;30517;51.932;4.278;2023-06-14T07:29:53;4.50;;;2.05;;
37297;SDS011;30517;51.932;4.278;2023-06-14T07:32:34;4.72;;;2.30;;
37297;SDS011;30517;51.932;4.278;2023-06-14T07:35:14;4.53;;;2.30;;
37297;SDS011;30517;51.932;4.278;2023-06-14T07:37:55;5.07;;;2.10;;
37297;SDS011;30517;51.932;4.278;2023-06-14T07:40:36;5.50;;;1.98;;
37297;SDS011;30517;51.932;4.278;2023-06-14T07:43:17;3.90;;;1.95;;
37297;SDS011;30517;51.932;4.278;2023-06-14T07:45:58;5.20;;;2.33;;
37297;SDS011;30517;51.932;4.278;2023-06-14T07:48:39;4.40;;;2.47;;
37297;SDS011;30517;51.932;4.278;2023-06-14T07:51:19;4.68;;;2.30;;
37297;SDS011;30517;51.932;4.278;2023-06-14T07:54:01;6.40;;;2.20;;
37297;SDS011;30517;51.932;4.278;2023-06-14T07:56:43;4.53;;;1.92;;
37297;SDS011;30517;51.932;4.278;2023-06-14T07:59:24;4.78;;;2.10;;
37297;SDS011;30517;51.932;4.278;2023-06-14T08:02:05;4.97;;;2.13;;
37297;SDS011;30517;51.932;4.278;2023-06-14T08:04:46;4.70;;;1.95;;
37297;SDS011;30517;51.932;4.278;2023-06-14T08:07:28;5.13;;;2.63;;
37297;SDS011;30517;51.932;4.278;2023-06-14T08:10:09;4.68;;;2.25;;
37297;SDS011;30517;51.932;4.278;2023-06-14T08:12:50;5.30;;;2.45;;
37297;SDS011;30517;51.932;4.278;2023-06-14T08:15:31;4.30;;;2.20;;
37297;SDS011;30517;51.932;4.278;2023-06-14T08:18:14;5.88;;;2.60;;
37297;SDS011;30517;51.932;4.278;2023-06-14T08:20:55;5.38;;;2.45;;
37297;SDS011;30517;51.932;4.278;2023-06-14T08:23:37;4.57;;;2.00;;
37297;SDS011;30517;51.932;4.278;2023-06-14T08:26:18;4.40;;;2.20;;
37297;SDS011;30517;51.932;4.278;2023-06-14T08:28:59;4.22;;;2.30;;
37297;SDS011;30517;51.932;4.278;2023-06-14T08:31:40;4.15;;;2.20;;
37297;SDS011;30517;51.932;4.278;2023-06-14T08:34:21;3.58;;;1.85;;
37297;SDS011;30517;51.932;4.278;2023-06-14T08:37:03;5.20;;;2.15;;
37297;SDS011;30517;51.932;4.278;2023-06-14T08:39:47;5.10;;;2.47;;
37297;SDS011;30517;51.932;4.278;2023-06-14T08:42:28;4.72;;;2.33;;
37297;SDS011;30517;51.932;4.278;2023-06-14T08:45:10;5.75;;;2.35;;
37297;SDS011;30517;51.932;4.278;2023-06-14T08:47:51;3.47;;;2.20;;
37297;SDS011;30517;51.932;4.278;2023-06-14T08:50:35;3.92;;;1.88;;
37297;SDS011;30517;51.932;4.278;2023-06-14T08:53:17;3.55;;;2.08;;
37297;SDS011;30517;51.932;4.278;2023-06-14T08:55:59;4.07;;;2.10;;
37297;SDS011;30517;51.932;4.278;2023-06-14T08:58:45;5.53;;;2.47;;
37297;SDS011;30517;51.932;4.278;2023-06-14T09:01:28;3.70;;;2.10;;
37297;SDS011;30517;51.932;4.278;2023-06-14T09:04:09;4.00;;;1.90;;
37297;SDS011;30517;51.932;4.278;2023-06-14T09:06:49;4.32;;;2.30;;
37297;SDS011;30517;51.932;4.278;2023-06-14T09:09:32;5.13;;;2.03;;
37297;SDS011;30517;51.932;4.278;2023-06-14T09:12:18;5.07;;;2.10;;
37297;SDS011;30517;51.932;4.278;2023-06-14T09:14:59;4.03;;;2.28;;
37297;SDS011;30517;51.932;4.278;2023-06-14T09:17:40;3.42;;;1.90;;
37297;SDS011;30517;51.932;4.278;2023-06-14T09:20:21;3.78;;;1.80;;
37297;SDS011;30517;51.932;4.278;2023-06-14T09:23:04;4.32;;;2.35;;
37297;SDS011;30517;51.932;4.278;2023-06-14T09:25:46;4.60;;;2.25;;
37297;SDS011;30517;51.932;4.278;2023-06-14T09:28:27;6.22;;;2.05;;
37297;SDS011;30517;51.932;4.278;2023-06-14T09:31:09;4.97;;;2.22;;
37297;SDS011;30517;51.932;4.278;2023-06-14T09:33:51;4.38;;;2.22;;
37297;SDS011;30517;51.932;4.278;2023-06-14T09:36:34;4.25;;;2.25;;
37297;SDS011;30517;51.932;4.278;2023-06-14T09:39:16;3.92;;;2.00;;
37297;SDS011;30517;51.932;4.278;2023-06-14T09:41:58;4.60;;;1.90;;
37297;SDS011;30517;51.932;4.278;2023-06-14T09:44:39;3.70;;;1.90;;
37297;SDS011;30517;51.932;4.278;2023-06-14T09:47:21;4.55;;;2.10;;
37297;SDS011;30517;51.932;4.278;2023-06-14T09:50:03;3.28;;;1.83;;
37297;SDS011;30517;51.932;4.278;2023-06-14T09:52:44;3.67;;;1.77;;
37297;SDS011;30517;51.932;4.278;2023-06-14T09:55:27;3.80;;;1.73;;
37297;SDS011;30517;51.932;4.278;2023-06-14T09:58:11;5.10;;;2.15;;
37297;SDS011;30517;51.932;4.278;2023-06-14T10:03:36;3.90;;;1.90;;
37297;SDS011;30517;51.932;4.278;2023-06-14T10:06:19;4.72;;;2.10;;
37297;SDS011;30517;51.932;4.278;2023-06-14T10:09:04;5.82;;;2.08;;
37297;SDS011;30517;51.932;4.278;2023-06-14T10:11:47;5.97;;;2.10;;
37297;SDS011;30517;51.932;4.278;2023-06-14T10:14:29;3.10;;;1.70;;
37297;SDS011;30517;51.932;4.278;2023-06-14T10:17:12;3.95;;;1.90;;
37297;SDS011;30517;51.932;4.278;2023-06-14T10:20:18;8.30;;;2.38;;
37297;SDS011;30517;51.932;4.278;2023-06-14T10:23:13;4.53;;;1.90;;
37297;SDS011;30517;51.932;4.278;2023-06-14T10:25:59;4.05;;;1.70;;
37297;SDS011;30517;51.932;4.278;2023-06-14T10:28:40;4.15;;;2.03;;
37297;SDS011;30517;51.932;4.278;2023-06-14T10:31:21;3.92;;;1.52;;
37297;SDS011;30517;51.932;4.278;2023-06-14T10:34:02;4.22;;;2.20;;
37297;SDS011;30517;51.932;4.278;2023-06-14T10:36:43;5.07;;;2.33;;
37297;SDS011;30517;51.932;4.278;2023-06-14T10:39:23;3.58;;;1.95;;
37297;SDS011;30517;51.932;4.278;2023-06-14T10:42:04;4.25;;;1.98;;
37297;SDS011;30517;51.932;4.278;2023-06-14T10:44:49;4.20;;;1.98;;
37297;SDS011;30517;51.932;4.278;2023-06-14T10:47:35;4.18;;;2.15;;
37297;SDS011;30517;51.932;4.278;2023-06-14T10:50:22;4.28;;;2.00;;
37297;SDS011;30517;51.932;4.278;2023-06-14T10:53:22;4.13;;;1.98;;
37297;SDS011;30517;51.932;4.278;2023-06-14T10:56:06;4.82;;;1.90;;
37297;SDS011;30517;51.932;4.278;2023-06-14T10:58:47;3.45;;;1.95;;
37297;SDS011;30517;51.932;4.278;2023-06-14T11:01:31;4.78;;;2.17;;
37297;SDS011;30517;51.932;4.278;2023-06-14T11:04:17;5.47;;;2.00;;
37297;SDS011;30517;51.932;4.278;2023-06-14T11:07:07;3.67;;;1.73;;
37297;SDS011;30517;51.932;4.278;2023-06-14T11:10:05;4.45;;;2.08;;
37297;SDS011;30517;51.932;4.278;2023-06-14T11:12:56;3.83;;;2.00;;
37297;SDS011;30517;51.932;4.278;2023-06-14T11:15:37;3.50;;;1.65;;
37297;SDS011;30517;51.932;4.278;2023-06-14T11:18:22;5.45;;;1.92;;
37297;SDS011;30517;51.932;4.278;2023-06-14T11:21:07;6.68;;;1.90;;
37297;SDS011;30517;51.932;4.278;2023-06-14T11:23:52;4.45;;;2.08;;
37297;SDS011;30517;51.932;4.278;2023-06-14T11:26:34;4.32;;;2.13;;
37297;SDS011;30517;51.932;4.278;2023-06-14T11:29:19;3.90;;;1.92;;
37297;SDS011;30517;51.932;4.278;2023-06-14T11:32:01;4.15;;;1.70;;
37297;SDS011;30517;51.932;4.278;2023-06-14T11:34:45;4.15;;;1.70;;
37297;SDS011;30517;51.932;4.278;2023-06-14T11:37:27;4.20;;;2.15;;
37297;SDS011;30517;51.932;4.278;2023-06-14T11:40:11;4.55;;;1.92;;
37297;SDS011;30517;51.932;4.278;2023-06-14T11:43:02;3.35;;;1.48;;
37297;SDS011;30517;51.932;4.278;2023-06-14T11:45:43;4.15;;;1.70;;
37297;SDS011;30517;51.932;4.278;2023-06-14T11:48:23;2.67;;;1.35;;
37297;SDS011;30517;51.932;4.278;2023-06-14T11:51:16;4.65;;;1.75;;
37297;SDS011;30517;51.932;4.278;2023-06-14T11:53:59;4.10;;;1.90;;
37297;SDS011;30517;51.932;4.278;2023-06-14T11:56:42;2.97;;;1.63;;
37297;SDS011;30517;51.932;4.278;2023-06-14T11:59:24;3.58;;;1.70;;
37297;SDS011;30517;51.932;4.278;2023-06-14T12:02:05;5.70;;;1.80;;
37297;SDS011;30517;51.932;4.278;2023-06-14T12:04:49;4.10;;;1.85;;
37297;SDS011;30517;51.932;4.278;2023-06-14T12:07:30;2.97;;;1.65;;
37297;SDS011;30517;51.932;4.278;2023-06-14T12:10:11;3.95;;;1.70;;
37297;SDS011;30517;51.932;4.278;2023-06-14T12:12:58;4.05;;;1.77;;
37297;SDS011;30517;51.932;4.278;2023-06-14T12:15:40;4.55;;;2.08;;
37297;SDS011;30517;51.932;4.278;2023-06-14T12:18:20;5.13;;;1.65;;
37297;SDS011;30517;51.932;4.278;2023-06-14T12:21:05;3.10;;;1.38;;
37297;SDS011;30517;51.932;4.278;2023-06-14T12:23:47;3.22;;;1.75;;
37297;SDS011;30517;51.932;4.278;2023-06-14T12:26:29;3.40;;;1.60;;
37297;SDS011;30517;51.932;4.278;2023-06-14T12:29:10;4.25;;;1.35;;
37297;SDS011;30517;51.932;4.278;2023-06-14T12:31:52;3.55;;;1.60;;
37297;SDS011;30517;51.932;4.278;2023-06-14T12:34:34;2.85;;;1.30;;
37297;SDS011;30517;51.932;4.278;2023-06-14T12:37:15;3.03;;;1.55;;
37297;SDS011;30517;51.932;4.278;2023-06-14T12:39:56;3.10;;;1.40;;
37297;SDS011;30517;51.932;4.278;2023-06-14T12:42:37;2.85;;;1.30;;
37297;SDS011;30517;51.932;4.278;2023-06-14T12:45:18;2.97;;;1.50;;
37297;SDS011;30517;51.932;4.278;2023-06-14T12:47:59;3.03;;;1.52;;
37297;SDS011;30517;51.932;4.278;2023-06-14T12:50:39;3.42;;;1.40;;
37297;SDS011;30517;51.932;4.278;2023-06-14T12:53:20;3.90;;;1.65;;
37297;SDS011;30517;51.932;4.278;2023-06-14T12:56:01;3.38;;;1.50;;
37297;SDS011;30517;51.932;4.278;2023-06-14T12:58:42;3.83;;;1.52;;
37297;SDS011;30517;51.932;4.278;2023-06-14T13:01:23;4.00;;;1.60;;
37297;SDS011;30517;51.932;4.278;2023-06-14T13:04:04;2.47;;;1.25;;
37297;SDS011;30517;51.932;4.278;2023-06-14T13:06:45;2.63;;;1.42;;
37297;SDS011;30517;51.932;4.278;2023-06-14T13:09:25;2.63;;;1.27;;
37297;SDS011;30517;51.932;4.278;2023-06-14T13:12:07;4.07;;;1.50;;
37297;SDS011;30517;51.932;4.278;2023-06-14T13:14:51;3.28;;;1.52;;
37297;SDS011;30517;51.932;4.278;2023-06-14T13:17:33;2.88;;;1.42;;
37297;SDS011;30517;51.932;4.278;2023-06-14T13:20:18;3.72;;;1.52;;
37297;SDS011;30517;51.932;4.278;2023-06-14T13:22:59;2.65;;;1.20;;
37297;SDS011;30517;51.932;4.278;2023-06-14T13:25:40;2.78;;;1.20;;
37297;SDS011;30517;51.932;4.278;2023-06-14T13:28:21;3.75;;;1.63;;
37297;SDS011;30517;51.932;4.278;2023-06-14T13:31:05;3.45;;;1.73;;
37297;SDS011;30517;51.932;4.278;2023-06-14T13:36:26;3.55;;;1.30;;
37297;SDS011;30517;51.932;4.278;2023-06-14T13:39:07;2.03;;;1.08;;
37297;SDS011;30517;51.932;4.278;2023-06-14T13:41:48;2.47;;;1.27;;
37297;SDS011;30517;51.932;4.278;2023-06-14T13:44:29;3.05;;;1.38;;
37297;SDS011;30517;51.932;4.278;2023-06-14T13:47:10;4.50;;;1.30;;
37297;SDS011;30517;51.932;4.278;2023-06-14T13:49:50;4.35;;;1.58;;
37297;SDS011;30517;51.932;4.278;2023-06-14T13:52:31;2.38;;;1.20;;
37297;SDS011;30517;51.932;4.278;2023-06-14T13:55:12;4.15;;;1.70;;
37297;SDS011;30517;51.932;4.278;2023-06-14T13:57:54;5.53;;;1.55;;
37297;SDS011;30517;51.932;4.278;2023-06-14T14:00:34;3.47;;;1.30;;
37297;SDS011;30517;51.932;4.278;2023-06-14T14:03:20;3.10;;;1.40;;
37297;SDS011;30517;51.932;4.278;2023-06-14T14:06:01;2.58;;;1.30;;
37297;SDS011;30517;51.932;4.278;2023-06-14T14:08:43;4.40;;;1.58;;
37297;SDS011;30517;51.932;4.278;2023-06-14T14:11:24;2.30;;;1.38;;
37297;SDS011;30517;51.932;4.278;2023-06-14T14:14:05;5.20;;;1.42;;
37297;SDS011;30517;51.932;4.278;2023-06-14T14:16:46;3.40;;;1.70;;
37297;SDS011;30517;51.932;4.278;2023-06-14T14:19:27;3.55;;;1.60;;
37297;SDS011;30517;51.932;4.278;2023-06-14T14:22:07;2.88;;;1.48;;
37297;SDS011;30517;51.932;4.278;2023-06-14T14:24:48;3.97;;;2.08;;
37297;SDS011;30517;51.932;4.278;2023-06-14T14:27:29;3.20;;;1.52;;
37297;SDS011;30517;51.932;4.278;2023-06-14T14:30:10;3.25;;;1.60;;
37297;SDS011;30517;51.932;4.278;2023-06-14T14:32:51;3.22;;;1.50;;
37297;SDS011;30517;51.932;4.278;2023-06-14T14:35:32;4.70;;;1.42;;
37297;SDS011;30517;51.932;4.278;2023-06-14T14:38:14;2.42;;;1.27;;
37297;SDS011;30517;51.932;4.278;2023-06-14T14:40:56;3.90;;;1.65;;
37297;SDS011;30517;51.932;4.278;2023-06-14T14:43:36;2.97;;;1.25;;
37297;SDS011;30517;51.932;4.278;2023-06-14T14:46:17;3.08;;;1.35;;
37297;SDS011;30517;51.932;4.278;2023-06-14T14:48:59;2.60;;;1.35;;
37297;SDS011;30517;51.932;4.278;2023-06-14T14:51:40;3.28;;;1.20;;
37297;SDS011;30517;51.932;4.278;2023-06-14T14:54:21;3.30;;;1.60;;
37297;SDS011;30517;51.932;4.278;2023-06-14T14:57:03;3.45;;;1.60;;
37297;SDS011;30517;51.932;4.278;2023-06-14T14:59:45;2.38;;;1.15;;
37297;SDS011;30517;51.932;4.278;2023-06-14T15:02:26;3.08;;;1.20;;
37297;SDS011;30517;51.932;4.278;2023-06-14T15:05:07;3.10;;;1.42;;
37297;SDS011;30517;51.932;4.278;2023-06-14T15:07:48;2.97;;;1.30;;
37297;SDS011;30517;51.932;4.278;2023-06-14T15:10:29;2.75;;;1.13;;
37297;SDS011;30517;51.932;4.278;2023-06-14T15:13:10;1.92;;;1.05;;
37297;SDS011;30517;51.932;4.278;2023-06-14T15:15:51;2.72;;;1.15;;
37297;SDS011;30517;51.932;4.278;2023-06-14T15:18:32;4.47;;;1.25;;
37297;SDS011;30517;51.932;4.278;2023-06-14T15:21:13;3.03;;;1.40;;
37297;SDS011;30517;51.932;4.278;2023-06-14T15:23:54;3.08;;;1.55;;
37297;SDS011;30517;51.932;4.278;2023-06-14T15:26:35;2.85;;;1.38;;
37297;SDS011;30517;51.932;4.278;2023-06-14T15:29:16;4.07;;;1.38;;
37297;SDS011;30517;51.932;4.278;2023-06-14T15:31:57;2.28;;;1.10;;
37297;SDS011;30517;51.932;4.278;2023-06-14T15:34:38;2.25;;;1.13;;
37297;SDS011;30517;51.932;4.278;2023-06-14T15:37:19;2.90;;;1.52;;
37297;SDS011;30517;51.932;4.278;2023-06-14T15:40:00;2.95;;;1.25;;
37297;SDS011;30517;51.932;4.278;2023-06-14T15:42:40;4.57;;;1.30;;
37297;SDS011;30517;51.932;4.278;2023-06-14T15:45:21;3.33;;;1.40;;
37297;SDS011;30517;51.932;4.278;2023-06-14T15:48:02;2.60;;;1.20;;
37297;SDS011;30517;51.932;4.278;2023-06-14T15:50:44;3.13;;;1.60;;
37297;SDS011;30517;51.932;4.278;2023-06-14T15:53:26;3.78;;;1.55;;
37297;SDS011;30517;51.932;4.278;2023-06-14T15:56:07;2.92;;;1.30;;
37297;SDS011;30517;51.932;4.278;2023-06-14T15:58:47;2.85;;;1.17;;
37297;SDS011;30517;51.932;4.278;2023-06-14T16:01:28;3.17;;;1.20;;
37297;SDS011;30517;51.932;4.278;2023-06-14T16:04:09;2.63;;;1.27;;
37297;SDS011;30517;51.932;4.278;2023-06-14T16:06:50;4.05;;;1.35;;
37297;SDS011;30517;51.932;4.278;2023-06-14T16:09:31;2.38;;;1.27;;
37297;SDS011;30517;51.932;4.278;2023-06-14T16:12:12;3.00;;;1.38;;
37297;SDS011;30517;51.932;4.278;2023-06-14T16:14:53;3.25;;;1.10;;
37297;SDS011;30517;51.932;4.278;2023-06-14T16:17:34;3.10;;;1.35;;
37297;SDS011;30517;51.932;4.278;2023-06-14T16:20:15;3.00;;;1.30;;
37297;SDS011;30517;51.932;4.278;2023-06-14T16:22:56;1.67;;;1.00;;
37297;SDS011;30517;51.932;4.278;2023-06-14T16:25:40;2.60;;;1.20;;